createdAt,value
2022-12-11T00:01:36.328Z,2.25
2022-12-11T00:04:05.573Z,2.25
2022-12-11T00:06:36.320Z,2.19
2022-12-11T00:09:05.765Z,2.23
2022-12-11T00:11:35.072Z,2.23
2022-12-11T00:14:05.089Z,2.25
2022-12-11T00:16:34.180Z,2.24
2022-12-11T00:19:03.300Z,2.23
2022-12-11T00:21:32.433Z,2.30
2022-12-11T00:24:02.871Z,2.27
2022-12-11T00:26:32.027Z,2.29
2022-12-11T00:29:01.143Z,2.34
2022-12-11T00:31:30.414Z,2.56
2022-12-11T00:33:59.512Z,2.46
2022-12-11T00:36:29.118Z,2.56
2022-12-11T00:38:58.318Z,2.59
2022-12-11T00:41:28.807Z,2.58
2022-12-11T00:44:00.889Z,2.72
2022-12-11T00:46:30.033Z,2.54
2022-12-11T00:48:59.617Z,2.61
2022-12-11T00:51:29.111Z,2.60
2022-12-11T00:53:58.181Z,2.56
2022-12-11T00:56:28.623Z,2.53
2022-12-11T00:58:58.194Z,2.53
2022-12-11T01:01:27.328Z,2.49
2022-12-11T01:03:56.422Z,2.59
2022-12-11T01:06:27.228Z,2.62
2022-12-11T01:09:10.516Z,2.73
2022-12-11T01:11:42.301Z,2.78
2022-12-11T01:14:12.839Z,2.74
2022-12-11T01:16:41.939Z,2.82
2022-12-11T01:19:11.107Z,2.74
2022-12-11T01:21:41.200Z,2.67
2022-12-11T01:24:10.392Z,2.75
2022-12-11T01:26:40.842Z,2.72
2022-12-11T01:29:10.075Z,2.70
2022-12-11T01:31:39.301Z,2.68
2022-12-11T01:34:08.388Z,2.67
2022-12-11T01:36:37.646Z,2.61
2022-12-11T01:39:06.865Z,2.60
2022-12-11T01:41:35.955Z,2.79
2022-12-11T01:44:29.058Z,2.73
2022-12-11T01:46:58.350Z,2.84
2022-12-11T01:49:29.680Z,2.74
2022-12-11T01:52:03.995Z,2.62
2022-12-11T01:54:33.728Z,2.60
2022-12-11T01:57:07.113Z,2.62
2022-12-11T01:59:42.367Z,2.58
2022-12-11T02:02:19.296Z,2.49
2022-12-11T02:04:49.664Z,2.42
2022-12-11T02:07:18.942Z,2.46
2022-12-11T02:09:49.651Z,2.47
2022-12-11T02:12:27.516Z,2.51
2022-12-11T02:15:08.639Z,2.64
2022-12-11T02:17:45.484Z,2.65
2022-12-11T02:20:24.181Z,2.58
2022-12-11T02:23:39.418Z,2.62
2022-12-11T02:26:26.346Z,2.57
2022-12-11T02:29:00.610Z,2.54
2022-12-11T02:31:37.864Z,2.74
2022-12-11T02:34:13.057Z,2.78
2022-12-11T02:36:46.475Z,2.90
2022-12-11T02:39:18.974Z,3.30
2022-12-11T02:41:52.513Z,3.20
2022-12-11T02:44:29.171Z,3.14
2022-12-11T02:47:00.574Z,3.01
2022-12-11T02:49:30.241Z,3.09
2022-12-11T02:52:03.078Z,3.09
2022-12-11T02:54:37.105Z,3.09
2022-12-11T02:57:12.717Z,3.20
2022-12-11T02:59:46.554Z,3.23
2022-12-11T03:02:18.895Z,3.29
2022-12-11T03:04:49.204Z,3.23
2022-12-11T03:07:24.586Z,3.18
2022-12-11T03:09:54.371Z,3.12
2022-12-11T03:12:29.147Z,3.11
2022-12-11T03:15:01.525Z,3.19
2022-12-11T03:17:39.835Z,3.18
2022-12-11T03:20:17.728Z,3.18
2022-12-11T03:22:54.364Z,3.13
2022-12-11T03:28:12.751Z,2.97
2022-12-11T03:30:45.263Z,2.82
2022-12-11T03:33:22.428Z,2.92
2022-12-11T03:35:57.128Z,2.98
2022-12-11T03:38:32.421Z,2.98
2022-12-11T03:41:05.424Z,3.02
2022-12-11T03:43:36.467Z,2.99
2022-12-11T03:46:10.019Z,2.92
2022-12-11T03:48:41.881Z,2.99
2022-12-11T03:51:11.096Z,3.01
2022-12-11T03:53:40.752Z,2.90
2022-12-11T03:56:13.443Z,2.88
2022-12-11T03:58:42.709Z,2.86
2022-12-11T04:01:13.318Z,2.80
2022-12-11T04:03:43.514Z,2.73
2022-12-11T04:06:12.604Z,2.72
2022-12-11T04:08:41.814Z,2.85
2022-12-11T04:11:29.374Z,2.77
2022-12-11T04:14:15.865Z,2.86
2022-12-11T04:16:46.415Z,2.76
2022-12-11T04:19:33.487Z,2.67
2022-12-11T04:22:20.011Z,2.57
2022-12-11T04:24:50.385Z,2.50
2022-12-11T04:27:34.747Z,2.46
2022-12-11T04:30:04.449Z,2.42
2022-12-11T04:32:35.870Z,2.34
2022-12-11T04:35:07.305Z,2.28
2022-12-11T04:37:36.809Z,2.19
2022-12-11T04:40:12.201Z,2.12
2022-12-11T04:42:41.688Z,2.13
2022-12-11T04:45:12.963Z,2.05
2022-12-11T04:47:43.993Z,2.06
2022-12-11T04:50:15.733Z,1.94
2022-12-11T04:52:45.476Z,1.89
2022-12-11T04:55:14.981Z,1.84
2022-12-11T04:57:44.033Z,1.78
2022-12-11T05:00:14.813Z,1.79
2022-12-11T05:02:45.268Z,1.77
2022-12-11T05:05:14.659Z,1.73
2022-12-11T05:07:43.943Z,1.82
2022-12-11T05:10:13.098Z,1.91
2022-12-11T05:12:42.224Z,1.82
2022-12-11T05:15:12.285Z,1.82
2022-12-11T05:17:41.605Z,1.81
2022-12-11T05:20:13.161Z,1.86
2022-12-11T05:22:42.409Z,1.84
2022-12-11T05:25:11.679Z,1.82
2022-12-11T05:27:40.933Z,1.90
2022-12-11T05:30:11.675Z,1.98
2022-12-11T05:32:40.697Z,1.95
2022-12-11T05:35:11.887Z,1.94
2022-12-11T05:37:41.352Z,1.93
2022-12-11T05:40:13.082Z,1.94
2022-12-11T05:42:42.197Z,1.85
2022-12-11T05:45:12.871Z,1.86
2022-12-11T05:47:42.107Z,1.87
2022-12-11T05:50:12.817Z,1.86
2022-12-11T05:52:41.928Z,1.96
2022-12-11T05:55:11.779Z,1.95
2022-12-11T05:57:41.151Z,2.01
2022-12-11T06:00:13.688Z,2.04
2022-12-11T06:02:42.922Z,2.03
2022-12-11T06:05:13.730Z,2.00
2022-12-11T06:07:42.929Z,2.09
2022-12-11T06:10:12.164Z,2.12
2022-12-11T06:12:41.338Z,2.10
2022-12-11T06:15:11.427Z,2.07
2022-12-11T06:17:40.799Z,2.08
2022-12-11T06:20:10.758Z,2.16
2022-12-11T06:22:41.524Z,2.21
2022-12-11T06:25:11.420Z,2.37
2022-12-11T06:27:41.300Z,2.36
2022-12-11T06:30:12.508Z,2.27
2022-12-11T06:32:42.156Z,2.28
2022-12-11T06:35:12.248Z,2.22
2022-12-11T06:37:43.186Z,2.15
2022-12-11T06:40:13.431Z,2.36
2022-12-11T06:42:42.609Z,2.38
2022-12-11T06:45:13.052Z,2.40
2022-12-11T06:47:42.296Z,2.38
2022-12-11T06:50:11.695Z,2.42
2022-12-11T06:52:42.143Z,2.49
2022-12-11T06:55:11.545Z,2.59
2022-12-11T06:57:40.868Z,2.72
2022-12-11T07:00:11.985Z,2.59
2022-12-11T07:02:41.296Z,2.41
2022-12-11T07:05:11.284Z,2.33
2022-12-11T07:07:42.538Z,2.13
2022-12-11T07:10:12.046Z,2.01
2022-12-11T07:12:41.736Z,2.01
2022-12-11T07:15:12.640Z,1.86
2022-12-11T07:17:44.504Z,1.75
2022-12-11T07:20:14.945Z,1.74
2022-12-11T07:22:46.755Z,1.73
2022-12-11T07:25:16.855Z,1.78
2022-12-11T07:27:46.179Z,1.88
2022-12-11T07:30:16.009Z,1.96
2022-12-11T07:32:45.428Z,2.01
2022-12-11T07:35:14.698Z,2.07
2022-12-11T07:37:46.876Z,2.13
2022-12-11T07:40:16.376Z,2.23
2022-12-11T07:42:46.402Z,2.28
2022-12-11T07:45:15.927Z,2.36
2022-12-11T07:47:45.501Z,2.35
2022-12-11T07:50:15.166Z,2.39
2022-12-11T07:52:46.310Z,2.56
2022-12-11T07:55:15.753Z,2.59
2022-12-11T07:57:44.848Z,2.68
2022-12-11T08:00:15.060Z,2.70
2022-12-11T08:02:44.301Z,2.76
2022-12-11T08:05:13.809Z,2.90
2022-12-11T08:07:43.321Z,3.02
2022-12-11T08:10:15.064Z,3.06
2022-12-11T08:12:44.226Z,3.22
2022-12-11T08:15:13.793Z,3.23
2022-12-11T08:17:43.091Z,3.31
2022-12-11T08:20:12.436Z,3.34
2022-12-11T08:22:41.568Z,3.32
2022-12-11T08:25:11.325Z,3.49
2022-12-11T08:27:42.232Z,3.55
2022-12-11T08:30:12.651Z,3.65
2022-12-11T08:32:41.864Z,3.75
2022-12-11T08:35:11.700Z,3.80
2022-12-11T08:37:41.356Z,3.90
2022-12-11T08:40:12.465Z,3.98
2022-12-11T08:42:43.260Z,4.14
2022-12-11T08:45:13.077Z,4.16
2022-12-11T08:47:43.185Z,4.19
2022-12-11T08:50:12.327Z,4.20
2022-12-11T08:52:41.524Z,4.23
2022-12-11T08:55:11.402Z,4.43
2022-12-11T08:57:43.311Z,4.48
2022-12-11T09:00:15.319Z,4.36
2022-12-11T09:02:44.613Z,4.39
2022-12-11T09:05:14.037Z,4.66
2022-12-11T09:07:43.196Z,4.92
2022-12-11T09:10:12.543Z,5.09
2022-12-11T09:12:43.071Z,5.29
2022-12-11T09:15:13.340Z,5.36
2022-12-11T09:17:42.598Z,5.52
2022-12-11T09:20:12.816Z,5.68
2022-12-11T09:22:42.970Z,5.64
2022-12-11T09:25:12.482Z,5.74
2022-12-11T09:27:43.362Z,5.75
2022-12-11T09:30:13.591Z,5.57
2022-12-11T09:32:42.845Z,5.57
2022-12-11T09:35:12.812Z,5.45
2022-12-11T09:37:42.204Z,5.62
2022-12-11T09:40:13.127Z,5.63
2022-12-11T09:42:55.453Z,5.70
2022-12-11T09:45:24.788Z,5.81
2022-12-11T09:47:57.567Z,5.62
2022-12-11T09:50:33.092Z,5.72
2022-12-11T09:53:14.276Z,5.66
2022-12-11T09:55:51.526Z,5.66
2022-12-11T09:58:30.554Z,5.80
2022-12-11T10:01:05.422Z,5.62
2022-12-11T10:03:56.872Z,5.77
2022-12-11T10:06:34.303Z,5.95
2022-12-11T10:09:12.655Z,5.90
2022-12-11T10:12:07.471Z,6.08
2022-12-11T10:14:56.293Z,5.81
2022-12-11T10:17:33.459Z,5.56
2022-12-11T10:20:19.075Z,5.60
2022-12-11T10:22:49.835Z,5.35
2022-12-11T10:25:25.505Z,5.56
2022-12-11T10:27:55.258Z,5.60
2022-12-11T10:30:32.956Z,5.59
2022-12-11T10:33:16.058Z,5.58
2022-12-11T10:35:49.521Z,6.02
2022-12-11T10:38:25.037Z,6.13
2022-12-11T10:40:58.428Z,6.48
2022-12-11T10:43:36.630Z,6.54
2022-12-11T10:46:15.252Z,6.04
2022-12-11T10:48:49.055Z,6.16
2022-12-11T10:51:18.729Z,6.05
2022-12-11T10:53:52.865Z,6.00
2022-12-11T10:56:28.584Z,6.06
2022-12-11T10:58:59.196Z,5.85
2022-12-11T11:01:32.838Z,5.96
2022-12-11T11:04:07.518Z,6.19
2022-12-11T11:06:36.614Z,6.28
2022-12-11T11:09:06.023Z,6.32
2022-12-11T11:11:39.573Z,6.41
2022-12-11T11:14:16.699Z,6.62
2022-12-11T11:16:49.432Z,6.56
2022-12-11T11:19:25.778Z,6.54
2022-12-11T11:21:58.839Z,6.29
2022-12-11T11:24:34.700Z,5.99
2022-12-11T11:27:13.884Z,6.16
2022-12-11T11:29:47.646Z,6.13
2022-12-11T11:32:24.914Z,6.03
2022-12-11T11:34:54.224Z,5.79
2022-12-11T11:37:34.138Z,5.82
2022-12-11T11:40:12.712Z,5.75
2022-12-11T11:42:48.645Z,6.04
2022-12-11T11:45:21.856Z,5.53
2022-12-11T11:48:11.441Z,5.46
2022-12-11T11:50:46.221Z,5.79
2022-12-11T11:53:24.387Z,5.86
2022-12-11T11:56:04.695Z,5.60
2022-12-11T11:58:41.439Z,5.87
2022-12-11T12:01:16.422Z,6.15
2022-12-11T12:03:48.803Z,5.67
2022-12-11T12:06:50.560Z,5.58
2022-12-11T12:09:37.232Z,5.19
2022-12-11T12:12:34.298Z,5.18
2022-12-11T12:15:19.375Z,5.27
2022-12-11T12:17:56.137Z,5.54
2022-12-11T12:20:44.426Z,5.15
2022-12-11T12:23:49.212Z,4.94
2022-12-11T12:26:27.482Z,4.93
2022-12-11T12:29:13.819Z,4.89
2022-12-11T12:32:04.402Z,5.02
2022-12-11T12:34:50.366Z,4.92
2022-12-11T12:37:35.948Z,4.69
2022-12-11T12:40:18.778Z,4.49
2022-12-11T12:42:56.790Z,4.11
2022-12-11T12:45:36.125Z,3.99
2022-12-11T12:48:05.494Z,3.89
2022-12-11T12:50:41.664Z,3.97
2022-12-11T12:53:18.888Z,4.16
2022-12-11T12:55:49.326Z,4.21
2022-12-11T12:58:29.752Z,4.10
2022-12-11T13:01:10.211Z,3.99
2022-12-11T13:03:55.392Z,3.97
2022-12-11T13:06:38.083Z,3.96
2022-12-11T13:09:21.366Z,3.81
2022-12-11T13:11:54.609Z,3.96
2022-12-11T13:14:31.945Z,3.99
2022-12-11T13:17:23.548Z,4.04
2022-12-11T13:20:10.528Z,3.99
2022-12-11T13:22:58.945Z,3.71
2022-12-11T13:25:36.262Z,3.65
2022-12-11T13:28:23.199Z,3.56
2022-12-11T13:31:04.926Z,3.69
2022-12-11T13:33:40.091Z,3.65
2022-12-11T13:36:32.656Z,3.54
2022-12-11T13:39:11.031Z,3.42
2022-12-11T13:41:45.918Z,3.27
2022-12-11T13:44:22.910Z,3.22
2022-12-11T13:46:54.204Z,3.27
2022-12-11T13:49:27.053Z,3.23
2022-12-11T13:51:59.480Z,3.03
2022-12-11T13:54:30.507Z,2.88
2022-12-11T13:57:13.868Z,2.87
2022-12-11T13:59:44.979Z,2.74
2022-12-11T14:02:20.715Z,2.72
2022-12-11T14:04:53.263Z,2.65
2022-12-11T14:07:29.406Z,2.59
2022-12-11T14:19:38.047Z,2.53
2022-12-11T14:40:21.794Z,2.21
2022-12-11T14:52:45.400Z,2.04
2022-12-11T14:55:23.576Z,1.91
2022-12-11T15:02:31.054Z,1.76
2022-12-11T15:05:12.898Z,1.67
2022-12-11T15:07:45.120Z,1.68
2022-12-11T15:55:35.122Z,1.19
2022-12-11T15:58:09.326Z,1.15
2022-12-11T16:00:40.732Z,1.08
2022-12-11T16:03:13.627Z,1.05
2022-12-11T16:05:43.232Z,0.91
2022-12-11T16:08:16.210Z,0.89
2022-12-11T16:10:48.604Z,0.74
2022-12-11T16:13:17.751Z,0.62
2022-12-11T16:15:50.912Z,0.66
2022-12-11T16:18:24.096Z,0.66
2022-12-11T16:20:53.900Z,0.62
2022-12-11T16:23:23.301Z,0.57
2022-12-11T16:31:35.934Z,0.44
2022-12-11T16:34:06.271Z,0.37
2022-12-11T16:36:35.285Z,0.43
2022-12-11T16:39:04.740Z,0.37
2022-12-11T16:41:34.331Z,0.38
2022-12-11T16:44:03.852Z,0.42
2022-12-11T16:46:32.968Z,0.36
2022-12-11T16:49:02.247Z,0.15
2022-12-11T16:51:32.636Z,-0.22
2022-12-11T16:54:01.850Z,-0.23
2022-12-11T16:56:30.988Z,-0.32
2022-12-11T16:59:02.831Z,-0.40
2022-12-11T17:01:36.354Z,-0.45
2022-12-11T17:04:06.186Z,-0.53
2022-12-11T17:06:37.759Z,-0.59
2022-12-11T17:09:08.059Z,-0.46
2022-12-11T17:11:39.758Z,-0.57
2022-12-11T17:14:12.522Z,-0.57
2022-12-11T17:16:42.217Z,-0.61
2022-12-11T17:19:12.349Z,-0.57
2022-12-11T17:21:47.013Z,-0.59
2022-12-11T17:24:19.318Z,-0.59
2022-12-11T17:26:48.317Z,-0.52
2022-12-11T17:29:17.321Z,-0.52
2022-12-11T17:31:47.028Z,-0.59
2022-12-11T17:34:16.952Z,-0.64
2022-12-11T17:36:47.633Z,-0.62
2022-12-11T17:39:16.662Z,-0.69
2022-12-11T17:41:45.562Z,-0.81
2022-12-11T17:44:15.774Z,-0.77
2022-12-11T17:46:44.785Z,-0.67
2022-12-11T17:49:13.824Z,-0.58
2022-12-11T17:51:42.860Z,-0.54
2022-12-11T17:54:14.082Z,-0.50
2022-12-11T17:56:43.058Z,-0.44
2022-12-11T17:59:12.054Z,-0.32
2022-12-11T18:01:41.135Z,-0.28
2022-12-11T18:04:10.332Z,-0.28
2022-12-11T18:06:39.306Z,-0.33
2022-12-11T18:09:08.990Z,-0.44
2022-12-11T18:11:39.682Z,-0.32
2022-12-11T18:14:13.724Z,-0.43
2022-12-11T18:16:45.661Z,-0.57
2022-12-11T18:19:15.737Z,-0.58
2022-12-11T18:21:46.230Z,-0.56
2022-12-11T18:24:15.715Z,-0.49
2022-12-11T18:26:46.650Z,-0.46
2022-12-11T18:29:15.864Z,-0.45
2022-12-11T18:31:45.101Z,-0.44
2022-12-11T18:34:14.542Z,-0.47
2022-12-11T18:36:43.587Z,-0.43
2022-12-11T18:39:12.752Z,-0.21
2022-12-11T18:41:42.504Z,-0.40
2022-12-11T18:44:13.238Z,-0.46
2022-12-11T18:46:43.779Z,-0.53
2022-12-11T18:49:13.102Z,-0.60
2022-12-11T18:51:42.988Z,-0.50
2022-12-11T18:54:12.782Z,-0.45
2022-12-11T18:56:43.018Z,-0.39
2022-12-11T18:59:15.041Z,-0.41
2022-12-11T19:01:44.096Z,-0.45
2022-12-11T19:04:13.430Z,-0.43
2022-12-11T19:06:42.685Z,-0.51
2022-12-11T19:09:14.187Z,-0.45
2022-12-11T19:11:44.211Z,-0.53
2022-12-11T19:14:15.578Z,-0.40
2022-12-11T19:16:45.694Z,-0.57
2022-12-11T19:19:22.715Z,-0.56
2022-12-11T19:21:51.916Z,-0.29
2022-12-11T19:24:24.440Z,-0.52
2022-12-11T19:26:54.003Z,-0.65
2022-12-11T19:29:29.484Z,-0.62
2022-12-11T19:31:59.064Z,-0.66
2022-12-11T19:34:30.185Z,-0.79
2022-12-11T19:36:59.278Z,-0.85
2022-12-11T19:39:28.577Z,-0.98
2022-12-11T19:41:57.745Z,-1.11
2022-12-11T19:44:28.385Z,-1.12
2022-12-11T19:47:00.545Z,-1.16
2022-12-11T19:49:30.286Z,-1.22
2022-12-11T19:51:59.417Z,-1.26
2022-12-11T19:54:28.832Z,-1.21
2022-12-11T19:56:57.994Z,-1.20
2022-12-11T19:59:28.869Z,-1.15
2022-12-11T20:01:58.001Z,-1.06
2022-12-11T20:04:27.478Z,-0.78
2022-12-11T20:06:56.770Z,-0.78
2022-12-11T20:09:27.767Z,-0.76
2022-12-11T20:11:57.255Z,-0.82
2022-12-11T20:14:29.638Z,-0.93
2022-12-11T20:17:15.514Z,-0.95
2022-12-11T20:19:44.861Z,-0.92
2022-12-11T20:22:17.189Z,-0.96
2022-12-11T20:24:47.020Z,-1.07
2022-12-11T20:27:16.708Z,-1.09
2022-12-11T20:29:47.336Z,-1.20
2022-12-11T20:32:19.693Z,-1.20
2022-12-11T20:34:49.027Z,-1.24
2022-12-11T20:37:19.020Z,-1.32
2022-12-11T20:39:48.209Z,-1.41
2022-12-11T20:42:17.369Z,-1.47
2022-12-11T20:44:49.403Z,-1.44
2022-12-11T20:47:19.846Z,-1.58
2022-12-11T20:49:51.294Z,-1.68
2022-12-11T20:52:21.264Z,-1.61
2022-12-11T20:54:50.531Z,-1.57
2022-12-11T20:57:20.112Z,-1.59
2022-12-11T20:59:50.767Z,-1.58
2022-12-11T21:02:19.993Z,-1.56
2022-12-11T21:04:49.535Z,-1.58
2022-12-11T21:07:18.951Z,-1.52
2022-12-11T21:09:48.102Z,-1.51
2022-12-11T21:12:17.282Z,-1.53
2022-12-11T21:14:46.343Z,-1.52
2022-12-11T21:17:17.118Z,-1.50
2022-12-11T21:19:46.416Z,-1.43
2022-12-11T21:22:15.756Z,-1.41
2022-12-11T21:24:44.899Z,-1.34
2022-12-11T21:27:14.218Z,-1.38
2022-12-11T21:29:43.471Z,-1.43
2022-12-11T21:32:13.840Z,-1.48
2022-12-11T21:34:44.666Z,-1.56
2022-12-11T21:37:14.254Z,-1.63
2022-12-11T21:39:43.501Z,-1.68
2022-12-11T21:42:12.682Z,-1.76
2022-12-11T21:45:51.801Z,-1.79
2022-12-11T21:47:31.287Z,-1.87
2022-12-11T21:50:01.905Z,-1.89
2022-12-11T21:52:31.218Z,-2.08
2022-12-11T21:55:00.487Z,-2.12
2022-12-11T21:57:30.175Z,-2.18
2022-12-11T21:59:59.646Z,-2.22
2022-12-11T22:02:29.151Z,-2.14
2022-12-11T22:05:02.681Z,-2.12
2022-12-11T22:07:32.521Z,-2.12
2022-12-11T22:10:01.437Z,-2.09
2022-12-11T22:12:31.179Z,-2.00
2022-12-11T22:15:00.419Z,-1.81
2022-12-11T22:17:29.770Z,-1.79
2022-12-11T22:19:58.937Z,-1.72
2022-12-11T22:22:29.699Z,-1.67
2022-12-11T22:24:58.776Z,-1.65
2022-12-11T22:27:27.937Z,-1.65
2022-12-11T22:29:57.211Z,-1.48
2022-12-11T22:32:27.551Z,-1.34
2022-12-11T22:34:57.841Z,-1.44
2022-12-11T22:37:26.954Z,-1.47
2022-12-11T22:39:57.547Z,-1.15
2022-12-11T22:42:26.561Z,-1.22
2022-12-11T22:44:56.078Z,-1.31
2022-12-11T22:47:25.196Z,-1.29
2022-12-11T22:54:27.138Z,-1.67
2022-12-11T22:56:57.832Z,-1.63
2022-12-11T22:59:28.443Z,-1.56
2022-12-11T23:02:00.929Z,-1.67
2022-12-11T23:04:29.930Z,-1.70
2022-12-11T23:06:59.719Z,-1.60
2022-12-11T23:09:28.744Z,-1.64
2022-12-11T23:11:59.609Z,-1.70
2022-12-11T23:14:29.184Z,-1.62
2022-12-11T23:16:58.433Z,-1.55
2022-12-11T23:19:27.855Z,-1.53
2022-12-11T23:21:57.443Z,-1.64
2022-12-11T23:24:26.415Z,-1.67
2022-12-11T23:26:55.494Z,-1.46
2022-12-11T23:29:25.800Z,-1.52
2022-12-11T23:31:54.810Z,-1.60
2022-12-11T23:34:23.786Z,-1.60
2022-12-11T23:36:52.802Z,-1.61
2022-12-11T23:39:21.788Z,-1.62
2022-12-11T23:41:50.761Z,-1.56
2022-12-11T23:44:19.745Z,-1.34
2022-12-11T23:46:50.213Z,-1.46
2022-12-11T23:49:19.131Z,-1.62
2022-12-11T23:51:48.109Z,-1.58
2022-12-11T23:54:17.386Z,-1.61
2022-12-11T23:56:46.384Z,-1.62
2022-12-11T23:59:16.391Z,-1.56
